Time;durP1;ratioP1;P1;durP2;ratioP2;P2;SDS_P1;SDS_P2;PMS_P1;PMS_P2;Temp;Humidity;BMP_temperature;BMP_pressure;BME280_temperature;BME280_humidity;BME280_pressure;Samples;Min_cycle;Max_cycle;Signal;HPM_P1;HPM_P2
2023/08/08 00:01:22;;;;;;;4.60;1.50;;;15.50;99.90;;;;;;5004057;28;20034;-70
2023/08/08 00:03:48;;;;;;;6.72;1.70;;;15.50;99.90;;;;;;5012761;28;20041;-70
2023/08/08 00:06:14;;;;;;;6.15;1.70;;;15.50;99.90;;;;;;5019832;28;20045;-69
2023/08/08 00:08:39;;;;;;;3.33;1.35;;;15.50;99.90;;;;;;5017575;28;20038;-70
2023/08/08 00:11:05;;;;;;;4.70;1.65;;;15.40;99.90;;;;;;5013240;28;20084;-70
2023/08/08 00:13:31;;;;;;;3.78;1.73;;;15.40;99.90;;;;;;5002898;28;20037;-69
2023/08/08 00:15:57;;;;;;;7.75;1.92;;;15.40;99.90;;;;;;5007362;28;20049;-69
2023/08/08 00:18:23;;;;;;;6.68;1.80;;;15.30;99.90;;;;;;5005794;28;20728;-69
2023/08/08 00:20:49;;;;;;;5.70;1.48;;;15.20;99.90;;;;;;5012419;28;20100;-70
2023/08/08 00:23:14;;;;;;;8.15;2.17;;;15.20;99.90;;;;;;5016933;28;20112;-70
2023/08/08 00:25:40;;;;;;;6.00;2.13;;;15.20;99.90;;;;;;5002916;28;20672;-70
2023/08/08 00:28:06;;;;;;;4.50;1.92;;;15.20;99.90;;;;;;5010986;28;20504;-69
2023/08/08 00:30:32;;;;;;;6.50;1.58;;;15.20;99.90;;;;;;5010040;28;20030;-69
2023/08/08 00:32:58;;;;;;;5.88;2.03;;;15.20;99.90;;;;;;5013884;28;20389;-69
2023/08/08 00:35:24;;;;;;;5.38;2.42;;;15.20;99.90;;;;;;5011818;28;20041;-69
2023/08/08 00:37:49;;;;;;;4.68;1.38;;;15.20;99.90;;;;;;4991121;28;20045;-69
2023/08/08 00:40:15;;;;;;;4.28;1.60;;;15.20;99.90;;;;;;4987398;28;20397;-69
2023/08/08 00:42:41;;;;;;;4.45;1.58;;;15.20;99.90;;;;;;4995352;28;20044;-69
2023/08/08 00:45:07;;;;;;;4.32;1.60;;;15.10;99.90;;;;;;5002149;28;20037;-69
2023/08/08 00:47:34;;;;;;;4.05;1.52;;;15.10;99.90;;;;;;5012901;28;20030;-69
2023/08/08 00:50:02;;;;;;;4.18;1.40;;;15.10;99.90;;;;;;5008674;28;20057;-69
2023/08/08 00:52:28;;;;;;;3.55;1.80;;;15.10;99.90;;;;;;4984464;28;20061;-69
2023/08/08 00:54:55;;;;;;;4.20;1.77;;;15.10;99.90;;;;;;5011713;28;20033;-69
2023/08/08 00:57:21;;;;;;;3.42;1.52;;;15.10;99.90;;;;;;5012581;28;20037;-69
2023/08/08 00:59:47;;;;;;;5.15;1.80;;;15.10;99.90;;;;;;4997385;28;20092;-69
2023/08/08 01:02:14;;;;;;;5.93;1.83;;;15.10;99.90;;;;;;5012959;28;20029;-68
2023/08/08 01:04:41;;;;;;;4.70;1.50;;;15.10;99.90;;;;;;5000405;28;20026;-69
2023/08/08 01:07:16;;;;;;;3.10;1.27;;;15.10;99.90;;;;;;5000395;28;20021;-69
2023/08/08 01:10:08;;;;;;;4.93;1.40;;;15.00;99.90;;;;;;4996755;28;20034;-69
2023/08/08 01:12:41;;;;;;;2.95;1.20;;;15.00;99.90;;;;;;4987203;28;20346;-69
2023/08/08 01:15:10;;;;;;;4.95;1.42;;;15.00;99.90;;;;;;5010712;28;20072;-69
2023/08/08 01:17:37;;;;;;;3.97;1.33;;;15.00;99.90;;;;;;5020079;28;20083;-69
2023/08/08 01:20:05;;;;;;;2.70;0.98;;;15.00;99.90;;;;;;5014299;28;20458;-69
2023/08/08 01:22:39;;;;;;;1.55;1.13;;;15.00;99.90;;;;;;5014525;28;20041;-69
2023/08/08 01:25:06;;;;;;;2.35;1.08;;;15.00;99.90;;;;;;4983471;28;20052;-69
2023/08/08 01:27:32;;;;;;;3.47;1.30;;;14.90;99.90;;;;;;5010977;28;20041;-69
2023/08/08 01:29:58;;;;;;;2.63;1.33;;;14.90;99.90;;;;;;4998779;28;20197;-69
2023/08/08 01:32:23;;;;;;;1.90;1.10;;;14.90;99.90;;;;;;4995683;28;20022;-69
2023/08/08 01:34:50;;;;;;;2.97;1.10;;;14.90;99.90;;;;;;5004815;28;20146;-68
2023/08/08 01:37:39;;;;;;;4.72;1.30;;;14.90;99.90;;;;;;4994951;28;20140;-69
2023/08/08 01:40:06;;;;;;;3.38;1.38;;;14.80;99.90;;;;;;4994720;28;20686;-69
2023/08/08 01:42:33;;;;;;;4.40;1.27;;;14.80;99.90;;;;;;4999863;28;20053;-69
2023/08/08 01:44:59;;;;;;;4.22;1.65;;;14.80;99.90;;;;;;5004240;28;20145;-69
2023/08/08 01:47:27;;;;;;;4.35;1.52;;;14.80;99.90;;;;;;5002248;28;20025;-69
2023/08/08 01:49:53;;;;;;;2.67;1.30;;;14.70;99.90;;;;;;5001547;28;20028;-69
2023/08/08 01:52:19;;;;;;;5.40;1.20;;;14.70;99.90;;;;;;4994251;28;20034;-69
2023/08/08 01:54:45;;;;;;;8.23;1.55;;;14.70;99.90;;;;;;4999698;28;20040;-69
2023/08/08 01:57:11;;;;;;;6.10;1.35;;;14.70;99.90;;;;;;5013194;28;20041;-69
2023/08/08 01:59:37;;;;;;;3.70;1.00;;;14.70;99.90;;;;;;5005441;28;20069;-68
2023/08/08 02:02:03;;;;;;;5.05;1.40;;;14.70;99.90;;;;;;4982039;28;20037;-69
2023/08/08 02:04:29;;;;;;;2.33;1.45;;;14.70;99.90;;;;;;5006953;28;20026;-69
2023/08/08 02:06:55;;;;;;;6.30;1.50;;;14.70;99.90;;;;;;5008224;28;20057;-69
2023/08/08 02:09:21;;;;;;;2.45;1.25;;;14.70;99.90;;;;;;4997133;28;20034;-69
2023/08/08 02:11:46;;;;;;;2.50;1.05;;;14.70;99.90;;;;;;5015385;28;20481;-69
2023/08/08 02:14:12;;;;;;;3.13;1.55;;;14.70;99.90;;;;;;4999119;28;20029;-69
2023/08/08 02:16:39;;;;;;;6.25;1.80;;;14.70;99.90;;;;;;5002530;28;20141;-69
2023/08/08 02:19:05;;;;;;;4.38;1.40;;;14.70;99.90;;;;;;4990274;28;20033;-69
2023/08/08 02:21:31;;;;;;;2.88;1.23;;;14.70;99.90;;;;;;4996337;28;20076;-69
2023/08/08 02:23:57;;;;;;;3.20;1.50;;;14.70;99.90;;;;;;5012399;28;20044;-69
2023/08/08 02:26:22;;;;;;;4.50;1.30;;;14.70;99.90;;;;;;5002495;28;20120;-69
2023/08/08 02:28:48;;;;;;;3.17;1.30;;;14.70;99.90;;;;;;4995697;28;20033;-69
2023/08/08 02:31:20;;;;;;;4.80;1.10;;;14.70;99.90;;;;;;5015267;28;20108;-69
2023/08/08 02:33:50;;;;;;;2.63;1.42;;;14.70;99.90;;;;;;4992724;28;20057;-69
2023/08/08 02:36:17;;;;;;;1.50;1.13;;;14.70;99.90;;;;;;4997723;28;20136;-69
2023/08/08 02:38:43;;;;;;;3.33;1.48;;;14.70;99.90;;;;;;4988789;28;20046;-69
2023/08/08 02:41:09;;;;;;;4.60;1.80;;;14.60;99.90;;;;;;5013324;28;20034;-69
2023/08/08 02:43:34;;;;;;;4.00;1.40;;;14.60;99.90;;;;;;4987511;28;20185;-69
2023/08/08 02:46:00;;;;;;;2.60;1.40;;;14.70;99.90;;;;;;5000665;28;20025;-69
2023/08/08 02:48:27;;;;;;;4.07;1.70;;;14.70;99.90;;;;;;4992061;28;20599;-69
2023/08/08 02:50:52;;;;;;;5.30;1.60;;;14.60;99.90;;;;;;5011302;28;20401;-69
2023/08/08 02:53:21;;;;;;;6.40;1.65;;;14.60;99.90;;;;;;4995984;28;20040;-69
2023/08/08 02:55:47;;;;;;;6.30;1.58;;;14.60;99.90;;;;;;5007646;28;20057;-69
2023/08/08 02:58:13;;;;;;;3.13;1.63;;;14.60;99.90;;;;;;4992067;28;20072;-69
2023/08/08 03:00:39;;;;;;;2.72;1.35;;;14.60;99.90;;;;;;4991284;28;20784;-69
2023/08/08 03:03:08;;;;;;;4.00;1.80;;;14.60;99.90;;;;;;4997055;28;20033;-69
2023/08/08 03:05:34;;;;;;;1.75;1.27;;;14.60;99.90;;;;;;5012389;28;20060;-69
2023/08/08 03:08:00;;;;;;;3.83;1.85;;;14.60;99.90;;;;;;4991723;28;20552;-69
2023/08/08 03:10:27;;;;;;;4.10;1.58;;;14.60;99.90;;;;;;4995596;28;20025;-69
2023/08/08 03:12:53;;;;;;;3.95;1.83;;;14.50;99.90;;;;;;5001564;28;20515;-68
2023/08/08 03:15:20;;;;;;;3.25;1.52;;;14.40;99.90;;;;;;4987517;28;20147;-69
2023/08/08 03:17:46;;;;;;;5.13;1.73;;;14.40;99.90;;;;;;5013372;28;20080;-68
2023/08/08 03:20:12;;;;;;;2.55;1.30;;;14.40;99.90;;;;;;4995845;28;20116;-69
2023/08/08 03:22:38;;;;;;;4.38;1.50;;;14.30;99.90;;;;;;4992506;28;20037;-69
2023/08/08 03:25:05;;;;;;;4.80;1.88;;;14.30;99.90;;;;;;4992629;28;20034;-69
2023/08/08 03:27:31;;;;;;;4.22;1.33;;;14.30;99.90;;;;;;4986203;28;20034;-69
2023/08/08 03:29:57;;;;;;;2.55;1.48;;;14.30;99.90;;;;;;4982788;28;20026;-69
2023/08/08 03:32:23;;;;;;;2.50;1.50;;;14.40;99.90;;;;;;4987939;28;20108;-69
2023/08/08 03:34:48;;;;;;;3.58;1.55;;;14.50;99.90;;;;;;5006420;28;20131;-69
2023/08/08 03:37:15;;;;;;;3.55;1.40;;;14.50;99.90;;;;;;4996904;28;20517;-69
2023/08/08 03:39:42;;;;;;;7.30;1.80;;;14.50;99.90;;;;;;4984990;28;20084;-69
2023/08/08 03:42:08;;;;;;;4.03;1.70;;;14.50;99.90;;;;;;4993499;28;20042;-69
2023/08/08 03:44:34;;;;;;;2.08;1.45;;;14.50;99.90;;;;;;4996551;28;20090;-69
2023/08/08 03:47:00;;;;;;;3.42;1.55;;;14.50;99.90;;;;;;5017790;28;20061;-69
2023/08/08 03:49:25;;;;;;;5.18;1.60;;;14.50;99.90;;;;;;5015811;28;20057;-69
2023/08/08 03:51:52;;;;;;;4.40;1.35;;;14.60;99.90;;;;;;5011367;28;20116;-69
2023/08/08 03:54:18;;;;;;;2.42;1.45;;;14.60;99.90;;;;;;5003444;28;20064;-69
2023/08/08 03:56:44;;;;;;;1.52;1.05;;;14.70;99.90;;;;;;5015799;28;20083;-69
2023/08/08 03:59:10;;;;;;;2.05;1.67;;;14.70;99.90;;;;;;5003919;28;20060;-69
2023/08/08 04:01:37;;;;;;;4.15;1.88;;;14.80;99.90;;;;;;5016382;28;20039;-69
2023/08/08 04:04:04;;;;;;;4.45;1.60;;;14.80;99.90;;;;;;5005127;28;20030;-69
2023/08/08 04:06:30;;;;;;;6.20;1.30;;;14.80;99.90;;;;;;4994952;28;20029;-69
2023/08/08 04:08:55;;;;;;;2.97;1.65;;;14.80;99.90;;;;;;5015392;28;20033;-69
2023/08/08 04:11:21;;;;;;;9.77;1.90;;;14.90;99.90;;;;;;5011550;28;20689;-69
2023/08/08 04:13:47;;;;;;;3.92;1.60;;;14.90;99.90;;;;;;5013058;28;20030;-69
2023/08/08 04:16:13;;;;;;;2.47;1.70;;;14.90;99.90;;;;;;5019889;28;20038;-69
2023/08/08 04:18:38;;;;;;;3.00;1.45;;;14.90;99.90;;;;;;5009326;28;20057;-69
2023/08/08 04:21:04;;;;;;;4.22;1.63;;;14.80;99.90;;;;;;5016891;28;20556;-69
2023/08/08 04:23:30;;;;;;;6.22;1.90;;;14.80;99.90;;;;;;5011995;28;20049;-69
2023/08/08 04:25:56;;;;;;;2.60;1.65;;;14.80;99.90;;;;;;5005477;28;20062;-69
2023/08/08 04:28:22;;;;;;;3.63;1.80;;;14.80;99.90;;;;;;5013991;28;20631;-69
2023/08/08 04:30:48;;;;;;;9.77;1.80;;;14.90;99.90;;;;;;5013630;28;20045;-69
2023/08/08 04:33:14;;;;;;;1.95;1.38;;;14.90;99.90;;;;;;5014808;28;20094;-69
2023/08/08 04:35:39;;;;;;;3.35;1.52;;;14.90;99.90;;;;;;4994843;28;20129;-69
2023/08/08 04:38:05;;;;;;;4.40;2.22;;;14.90;99.90;;;;;;5013081;28;20045;-69
2023/08/08 04:40:31;;;;;;;3.95;1.50;;;14.90;99.90;;;;;;5007926;28;20041;-68
2023/08/08 04:42:56;;;;;;;2.30;1.58;;;14.80;99.90;;;;;;4994551;28;20141;-68
2023/08/08 04:45:22;;;;;;;4.10;1.40;;;14.80;99.90;;;;;;5009339;28;20041;-69
2023/08/08 04:47:48;;;;;;;4.97;1.70;;;14.80;99.90;;;;;;5020235;28;20120;-68
2023/08/08 04:50:14;;;;;;;5.97;1.60;;;14.80;99.90;;;;;;5009031;28;20427;-69
2023/08/08 04:52:40;;;;;;;3.42;1.20;;;14.90;99.90;;;;;;5007756;28;20489;-69
2023/08/08 04:55:06;;;;;;;3.80;1.70;;;15.00;99.90;;;;;;5021140;28;20669;-69
2023/08/08 04:57:31;;;;;;;3.45;1.65;;;15.10;99.90;;;;;;5010566;28;20548;-69
2023/08/08 04:59:57;;;;;;;3.28;1.30;;;15.20;99.90;;;;;;5012068;28;20108;-69
2023/08/08 05:02:23;;;;;;;4.03;1.30;;;15.10;99.90;;;;;;5009554;28;20155;-69
2023/08/08 05:04:49;;;;;;;3.40;1.58;;;15.20;99.90;;;;;;5012452;28;20120;-69
2023/08/08 05:07:15;;;;;;;4.00;1.50;;;15.20;99.90;;;;;;5020776;28;20084;-69
2023/08/08 05:09:41;;;;;;;2.08;1.35;;;15.20;99.90;;;;;;4997006;28;20753;-69
2023/08/08 05:12:07;;;;;;;2.80;1.30;;;15.30;99.90;;;;;;4998650;28;20029;-69
2023/08/08 05:14:33;;;;;;;1.95;1.60;;;15.30;99.90;;;;;;5018219;28;20030;-69
2023/08/08 05:16:59;;;;;;;2.22;1.30;;;15.40;99.90;;;;;;5009007;28;20546;-69
2023/08/08 05:19:25;;;;;;;4.13;1.73;;;15.40;99.90;;;;;;5013722;28;20049;-69
2023/08/08 05:21:51;;;;;;;6.32;1.70;;;15.40;99.90;;;;;;5010044;28;20037;-69
2023/08/08 05:24:16;;;;;;;3.45;1.73;;;15.40;99.90;;;;;;5025107;28;20033;-69
2023/08/08 05:26:42;;;;;;;3.13;1.48;;;15.50;99.90;;;;;;5007472;28;20045;-69
2023/08/08 05:29:08;;;;;;;5.30;1.40;;;15.50;99.90;;;;;;5014635;28;20091;-69
2023/08/08 05:31:34;;;;;;;3.28;1.30;;;15.60;99.90;;;;;;5008491;28;20173;-69
2023/08/08 05:33:59;;;;;;;3.97;1.88;;;15.60;99.90;;;;;;5009789;28;20021;-69
2023/08/08 05:36:25;;;;;;;3.15;1.42;;;15.60;99.90;;;;;;5012897;28;20593;-69
2023/08/08 05:38:51;;;;;;;3.35;1.20;;;15.70;99.90;;;;;;5008272;28;20495;-69
2023/08/08 05:41:16;;;;;;;2.72;1.75;;;15.80;99.90;;;;;;5015958;28;20037;-69
2023/08/08 05:43:42;;;;;;;2.95;1.65;;;15.90;99.90;;;;;;5008977;28;20096;-69
2023/08/08 05:46:08;;;;;;;2.88;1.50;;;16.00;99.90;;;;;;5013614;28;20045;-69
2023/08/08 05:48:34;;;;;;;2.60;1.45;;;16.20;99.90;;;;;;5020433;28;20032;-69
2023/08/08 05:50:59;;;;;;;5.55;1.50;;;16.20;99.90;;;;;;5011904;28;20041;-69
2023/08/08 05:53:25;;;;;;;2.95;1.30;;;16.20;99.90;;;;;;5007807;28;20030;-68
2023/08/08 05:55:51;;;;;;;5.43;1.60;;;16.00;99.90;;;;;;5004680;28;20418;-69
2023/08/08 05:58:17;;;;;;;5.65;1.50;;;16.10;99.90;;;;;;5001362;28;20124;-69
2023/08/08 06:00:43;;;;;;;3.47;1.60;;;16.20;99.90;;;;;;5011678;28;20037;-68
2023/08/08 06:03:08;;;;;;;4.80;1.80;;;16.40;99.90;;;;;;5015905;28;20033;-69
2023/08/08 06:05:34;;;;;;;4.80;1.65;;;16.30;99.90;;;;;;4994446;28;20816;-69
2023/08/08 06:08:00;;;;;;;3.75;1.40;;;16.30;99.90;;;;;;5009079;28;20076;-69
2023/08/08 06:10:26;;;;;;;2.40;1.67;;;16.40;99.90;;;;;;4995787;28;20054;-69
2023/08/08 06:12:51;;;;;;;5.15;1.40;;;16.40;99.90;;;;;;5011009;28;20029;-69
2023/08/08 06:15:17;;;;;;;3.90;1.60;;;16.40;99.90;;;;;;5010040;28;20052;-69
2023/08/08 06:17:43;;;;;;;3.78;1.15;;;16.40;99.90;;;;;;5021038;28;20678;-70
2023/08/08 06:20:09;;;;;;;6.25;1.85;;;16.50;99.90;;;;;;4999187;28;20037;-69
2023/08/08 06:22:36;;;;;;;4.03;1.50;;;16.50;99.90;;;;;;4998618;28;20040;-68
2023/08/08 06:25:03;;;;;;;3.00;1.50;;;16.50;99.90;;;;;;5014972;28;20021;-69
2023/08/08 06:27:29;;;;;;;2.75;1.48;;;16.50;99.90;;;;;;5011896;28;20030;-69
2023/08/08 06:29:55;;;;;;;3.90;1.50;;;16.50;99.90;;;;;;4994229;28;20548;-69
2023/08/08 06:32:21;;;;;;;4.10;1.77;;;16.40;99.90;;;;;;5012901;28;20030;-69
2023/08/08 06:34:47;;;;;;;2.10;1.50;;;16.40;99.90;;;;;;5015585;28;20107;-69
2023/08/08 06:37:13;;;;;;;2.90;1.70;;;16.40;99.90;;;;;;5005390;28;20064;-69
2023/08/08 06:39:40;;;;;;;2.67;1.63;;;16.50;99.90;;;;;;5010206;28;20029;-69
2023/08/08 06:42:06;;;;;;;4.65;1.63;;;16.50;99.90;;;;;;5013926;28;20041;-69
2023/08/08 06:44:43;;;;;;;3.05;1.67;;;16.40;99.90;;;;;;4980338;28;20625;-69
2023/08/08 06:47:10;;;;;;;1.58;1.42;;;16.40;99.90;;;;;;5005036;28;20033;-69
2023/08/08 06:49:36;;;;;;;3.15;1.60;;;16.40;99.90;;;;;;5001939;28;20080;-69
2023/08/08 06:52:03;;;;;;;2.08;1.30;;;16.50;99.90;;;;;;5012526;28;20599;-69
2023/08/08 06:54:28;;;;;;;2.38;1.50;;;16.60;99.90;;;;;;5009454;28;20034;-69
2023/08/08 06:56:56;;;;;;;3.30;1.90;;;16.70;99.90;;;;;;5015536;28;20041;-69
2023/08/08 06:59:24;;;;;;;3.08;1.40;;;16.70;99.90;;;;;;5016792;28;20049;-69
2023/08/08 07:01:50;;;;;;;3.13;1.40;;;16.80;99.90;;;;;;5014404;28;20444;-69
2023/08/08 07:04:17;;;;;;;4.20;1.50;;;16.80;99.90;;;;;;5007693;28;20842;-69
2023/08/08 07:06:44;;;;;;;3.28;1.52;;;16.90;99.90;;;;;;5004875;28;20193;-69
2023/08/08 07:09:14;;;;;;;3.22;1.52;;;16.90;99.90;;;;;;5019691;28;20056;-69
2023/08/08 07:11:40;;;;;;;2.08;1.50;;;17.00;99.90;;;;;;5019752;28;20030;-69
2023/08/08 07:14:06;;;;;;;2.88;1.67;;;17.00;99.90;;;;;;5012107;28;20493;-69
2023/08/08 07:16:32;;;;;;;6.05;1.70;;;17.00;99.90;;;;;;5015990;28;20037;-69
2023/08/08 07:18:57;;;;;;;2.22;1.75;;;17.00;99.90;;;;;;4995326;28;20183;-69
2023/08/08 07:21:23;;;;;;;2.47;1.58;;;17.10;99.90;;;;;;5004276;28;20046;-69
2023/08/08 07:23:49;;;;;;;3.78;1.50;;;17.20;99.90;;;;;;5007373;28;20042;-69
2023/08/08 07:26:15;;;;;;;2.35;1.50;;;17.30;99.90;;;;;;5012106;28;20042;-69
2023/08/08 07:28:40;;;;;;;5.22;1.58;;;17.40;99.90;;;;;;5011116;28;20034;-69
2023/08/08 07:31:06;;;;;;;4.75;1.73;;;17.40;99.90;;;;;;4999645;28;20037;-70
2023/08/08 07:33:32;;;;;;;2.53;1.60;;;17.40;99.90;;;;;;5015552;28;20033;-70
2023/08/08 07:35:58;;;;;;;3.65;1.63;;;17.40;99.90;;;;;;5010532;28;20038;-70
2023/08/08 07:38:24;;;;;;;3.40;1.67;;;17.40;99.90;;;;;;5009731;28;20038;-69
2023/08/08 07:40:49;;;;;;;6.22;1.90;;;17.40;99.90;;;;;;5005134;28;20045;-69
2023/08/08 07:43:15;;;;;;;6.75;1.42;;;17.30;99.90;;;;;;4995277;28;20046;-69
2023/08/08 07:45:42;;;;;;;2.67;1.67;;;17.30;99.90;;;;;;5004787;28;20104;-69
2023/08/08 07:48:08;;;;;;;2.85;1.77;;;17.40;99.90;;;;;;5015411;28;20349;-69
2023/08/08 07:50:34;;;;;;;2.28;1.50;;;17.50;99.90;;;;;;5006731;28;20038;-70
2023/08/08 07:52:59;;;;;;;5.75;1.83;;;17.70;99.90;;;;;;5011465;28;20048;-69
2023/08/08 07:55:25;;;;;;;1.58;1.45;;;17.80;99.90;;;;;;5015199;28;20061;-68
2023/08/08 07:57:51;;;;;;;3.08;1.75;;;17.90;99.90;;;;;;4996276;28;20076;-68
2023/08/08 08:00:18;;;;;;;5.93;1.55;;;17.90;99.90;;;;;;5014456;28;20044;-69
2023/08/08 08:02:45;;;;;;;4.70;1.73;;;17.90;99.90;;;;;;4999129;28;20030;-69
2023/08/08 08:05:12;;;;;;;2.65;1.58;;;17.80;99.90;;;;;;5014469;28;20044;-69
2023/08/08 08:07:38;;;;;;;2.47;1.70;;;17.80;99.90;;;;;;5012785;28;20485;-69
2023/08/08 08:10:07;;;;;;;2.72;1.95;;;17.80;99.90;;;;;;5006861;28;20554;-69
2023/08/08 08:12:33;;;;;;;3.28;1.55;;;17.80;99.90;;;;;;5003528;28;20814;-69
2023/08/08 08:14:59;;;;;;;4.25;1.70;;;17.80;99.90;;;;;;5001472;28;20037;-69
2023/08/08 08:17:24;;;;;;;4.20;1.88;;;18.00;99.90;;;;;;5002783;28;20026;-69
2023/08/08 08:19:51;;;;;;;3.97;1.90;;;18.00;99.90;;;;;;5009255;28;20052;-69
2023/08/08 08:22:17;;;;;;;3.10;1.58;;;18.20;99.90;;;;;;5013426;28;20037;-69
2023/08/08 08:24:43;;;;;;;2.45;1.58;;;18.20;99.90;;;;;;4998562;28;20089;-69
2023/08/08 08:27:09;;;;;;;2.28;1.70;;;18.20;99.90;;;;;;5015657;28;20045;-71
2023/08/08 08:29:35;;;;;;;2.28;1.25;;;18.30;99.90;;;;;;5011505;28;20033;-70
2023/08/08 08:32:00;;;;;;;3.35;1.70;;;18.40;99.90;;;;;;5004744;28;20056;-70
2023/08/08 08:34:26;;;;;;;4.10;1.42;;;18.50;99.90;;;;;;5017477;28;20029;-70
2023/08/08 08:36:52;;;;;;;5.68;1.60;;;18.50;99.80;;;;;;5012021;28;20485;-70
2023/08/08 08:39:19;;;;;;;3.38;1.08;;;18.50;99.90;;;;;;5017316;28;20763;-69
2023/08/08 08:41:49;;;;;;;2.13;1.38;;;18.50;99.40;;;;;;4998680;28;20065;-70
2023/08/08 08:44:16;;;;;;;7.03;1.50;;;18.60;99.70;;;;;;5009809;28;20112;-70
2023/08/08 08:46:44;;;;;;;2.17;1.33;;;18.60;99.40;;;;;;5017986;28;20033;-70
2023/08/08 08:49:11;;;;;;;5.18;1.55;;;18.60;99.50;;;;;;5002209;28;20058;-70
2023/08/08 08:51:38;;;;;;;4.90;1.70;;;18.50;99.30;;;;;;5005327;28;20117;-70
2023/08/08 08:54:05;;;;;;;3.65;1.50;;;18.60;99.30;;;;;;5003010;28;20021;-69
2023/08/08 08:56:32;;;;;;;4.88;1.30;;;18.50;99.40;;;;;;5016233;28;20034;-69
2023/08/08 08:58:59;;;;;;;4.20;1.60;;;18.40;99.70;;;;;;5018354;28;20104;-70
2023/08/08 09:01:25;;;;;;;3.45;1.60;;;18.60;99.60;;;;;;5000038;28;20140;-70
2023/08/08 09:03:51;;;;;;;4.60;1.50;;;18.70;99.30;;;;;;5012604;28;20026;-71
2023/08/08 09:06:19;;;;;;;3.22;1.27;;;18.80;99.20;;;;;;5013391;28;20838;-70
2023/08/08 09:08:46;;;;;;;2.38;1.45;;;18.90;98.40;;;;;;5008956;28;20164;-70
2023/08/08 09:11:12;;;;;;;5.25;1.42;;;18.90;98.30;;;;;;5018625;28;20036;-69
2023/08/08 09:13:39;;;;;;;4.10;1.52;;;18.90;98.70;;;;;;5017506;28;20033;-69
2023/08/08 09:16:09;;;;;;;5.50;1.33;;;18.70;98.50;;;;;;5020342;28;20048;-69
2023/08/08 09:18:39;;;;;;;5.13;1.60;;;18.80;98.20;;;;;;5014027;28;20664;-68
2023/08/08 09:21:05;;;;;;;2.40;1.42;;;19.00;98.60;;;;;;4986772;28;20091;-71
2023/08/08 09:23:31;;;;;;;2.10;1.35;;;19.20;98.60;;;;;;5008278;28;20061;-70
2023/08/08 09:25:56;;;;;;;4.47;1.65;;;19.30;98.20;;;;;;5010989;28;20469;-71
2023/08/08 09:28:23;;;;;;;3.42;1.73;;;19.20;97.60;;;;;;5014734;28;20700;-70
2023/08/08 09:30:49;;;;;;;4.50;1.75;;;19.00;98.40;;;;;;4999944;28;20065;-69
2023/08/08 09:33:14;;;;;;;3.78;1.70;;;18.90;98.70;;;;;;5008499;28;20116;-70
2023/08/08 09:35:40;;;;;;;2.85;1.80;;;18.80;99.90;;;;;;5016427;28;20507;-70
2023/08/08 09:38:07;;;;;;;3.85;1.90;;;18.70;99.70;;;;;;5011985;28;20041;-69
2023/08/08 09:40:33;;;;;;;4.10;1.65;;;18.50;99.90;;;;;;5009095;28;20045;-70
2023/08/08 09:42:59;;;;;;;3.67;1.80;;;18.50;99.90;;;;;;5008046;28;20530;-70
2023/08/08 09:45:25;;;;;;;4.63;1.60;;;18.60;99.80;;;;;;5001370;28;20042;-70
2023/08/08 09:47:54;;;;;;;5.05;1.58;;;18.70;99.60;;;;;;5002103;28;20030;-70
2023/08/08 09:50:20;;;;;;;5.75;1.63;;;18.60;99.10;;;;;;5014528;28;20041;-70
2023/08/08 09:52:47;;;;;;;5.72;2.22;;;18.50;98.50;;;;;;5005616;28;20117;-69
2023/08/08 09:55:14;;;;;;;4.25;1.70;;;18.50;99.00;;;;;;5015475;28;20812;-69
2023/08/08 09:57:41;;;;;;;4.15;1.65;;;18.80;99.90;;;;;;5005063;28;20033;-68
2023/08/08 10:00:15;;;;;;;3.92;1.73;;;19.10;99.20;;;;;;4989711;28;20095;-69
2023/08/08 10:02:45;;;;;;;5.28;1.83;;;19.30;99.00;;;;;;5002933;28;20030;-69
2023/08/08 10:05:14;;;;;;;3.72;1.40;;;19.50;98.00;;;;;;5006821;28;20029;-69
2023/08/08 10:07:41;;;;;;;3.38;1.60;;;19.60;97.70;;;;;;5017612;28;20034;-69
2023/08/08 10:10:09;;;;;;;4.18;1.85;;;19.70;97.30;;;;;;5011292;28;20517;-69
2023/08/08 10:12:38;;;;;;;4.05;1.50;;;19.40;95.70;;;;;;5014271;28;20029;-69
2023/08/08 10:15:07;;;;;;;5.28;1.55;;;19.20;96.40;;;;;;5008821;28;20095;-69
2023/08/08 10:17:41;;;;;;;3.60;1.70;;;19.20;97.50;;;;;;5003874;28;20046;-69
2023/08/08 10:20:12;;;;;;;3.10;1.58;;;19.20;97.20;;;;;;5006672;28;20048;-72
2023/08/08 10:22:43;;;;;;;2.20;1.48;;;19.20;97.70;;;;;;5004696;28;20029;-69
2023/08/08 10:25:09;;;;;;;8.18;2.25;;;19.30;96.80;;;;;;5005317;28;20033;-69
2023/08/08 10:27:36;;;;;;;4.05;1.75;;;19.20;99.30;;;;;;5019263;28;20160;-69
2023/08/08 10:30:10;;;;;;;4.95;2.22;;;19.20;99.90;;;;;;4990916;28;20033;-70
2023/08/08 10:32:48;;;;;;;4.35;2.22;;;19.00;99.90;;;;;;5005743;28;20062;-69
2023/08/08 10:35:14;;;;;;;4.43;1.95;;;18.90;99.90;;;;;;5003925;28;20080;-70
2023/08/08 10:37:51;;;;;;;3.42;1.65;;;18.80;99.90;;;;;;5007424;28;20026;-69
2023/08/08 10:40:18;;;;;;;4.03;2.10;;;18.80;99.90;;;;;;5015908;28;20548;-70
2023/08/08 10:42:46;;;;;;;2.50;1.80;;;18.80;99.90;;;;;;5007102;28;20035;-69
2023/08/08 10:45:15;;;;;;;4.63;2.33;;;18.90;99.90;;;;;;5013025;28;20083;-69
2023/08/08 10:47:42;;;;;;;4.57;2.15;;;18.90;99.90;;;;;;5010039;28;20128;-69
2023/08/08 10:50:13;;;;;;;4.28;2.25;;;19.10;99.90;;;;;;5011700;28;20631;-69
2023/08/08 10:52:54;;;;;;;5.03;2.58;;;19.20;99.90;;;;;;5006790;28;20037;-69
2023/08/08 10:55:23;;;;;;;5.95;2.53;;;19.40;99.90;;;;;;5008852;28;20053;-68
2023/08/08 10:58:07;;;;;;;8.25;2.70;;;19.40;99.90;;;;;;5008760;28;20794;-69
2023/08/08 11:00:35;;;;;;;4.38;1.70;;;19.50;99.90;;;;;;5011793;28;20092;-69
2023/08/08 11:03:02;;;;;;;5.88;1.58;;;19.50;99.90;;;;;;5012434;28;20025;-68
2023/08/08 11:05:30;;;;;;;1.92;1.38;;;19.30;99.90;;;;;;5008962;28;20018;-69
2023/08/08 11:07:57;;;;;;;5.07;1.80;;;18.90;99.90;;;;;;5009614;28;20100;-69
2023/08/08 11:10:22;;;;;;;2.65;1.63;;;18.60;99.90;;;;;;5006131;28;20030;-69
2023/08/08 11:13:03;;;;;;;4.07;1.75;;;18.30;99.90;;;;;;5005861;28;20030;-69
2023/08/08 11:15:29;;;;;;;5.38;2.92;;;18.10;99.90;;;;;;5004009;28;20034;-69
2023/08/08 11:17:56;;;;;;;3.85;2.20;;;18.00;99.90;;;;;;5015424;28;20056;-69
2023/08/08 11:20:28;;;;;;;5.45;2.83;;;17.90;99.90;;;;;;5006061;28;20108;-69
2023/08/08 11:22:55;;;;;;;4.25;2.45;;;18.00;99.90;;;;;;5010206;28;20045;-69
2023/08/08 11:25:25;;;;;;;7.30;2.33;;;18.20;99.90;;;;;;5006612;28;20026;-69
2023/08/08 11:27:52;;;;;;;3.55;2.20;;;18.40;99.90;;;;;;5003010;28;20038;-69
2023/08/08 11:30:19;;;;;;;4.60;2.08;;;18.60;99.90;;;;;;5001083;28;20110;-68
2023/08/08 11:32:47;;;;;;;2.92;2.10;;;18.70;99.90;;;;;;4994927;28;20036;-69
2023/08/08 11:35:16;;;;;;;3.05;1.88;;;18.70;99.90;;;;;;5000555;28;20030;-69
2023/08/08 11:37:43;;;;;;;5.93;1.83;;;18.90;99.90;;;;;;5000650;28;20049;-69
2023/08/08 11:40:10;;;;;;;4.25;2.03;;;18.90;99.90;;;;;;5010447;28;20095;-69
2023/08/08 11:42:36;;;;;;;2.63;2.00;;;18.90;99.90;;;;;;5006021;28;20057;-69
2023/08/08 11:45:04;;;;;;;4.85;2.05;;;19.00;99.90;;;;;;4993597;28;20130;-69
2023/08/08 11:47:35;;;;;;;3.67;1.80;;;19.10;99.90;;;;;;5007473;28;20041;-69
2023/08/08 11:50:03;;;;;;;4.20;2.00;;;19.20;99.90;;;;;;5008014;28;20210;-69
2023/08/08 11:52:30;;;;;;;2.45;1.70;;;19.40;99.90;;;;;;5007702;28;20045;-69
2023/08/08 11:54:58;;;;;;;2.28;1.58;;;19.60;99.90;;;;;;5012448;28;20065;-69
2023/08/08 11:57:23;;;;;;;5.28;2.42;;;19.70;99.90;;;;;;5008854;28;20049;-69
2023/08/08 11:59:49;;;;;;;3.85;2.55;;;19.90;99.90;;;;;;5002140;28;20033;-70
2023/08/08 12:02:15;;;;;;;4.25;1.95;;;20.00;99.90;;;;;;4986471;28;20123;-70
2023/08/08 12:04:50;;;;;;;4.45;2.50;;;20.00;99.90;;;;;;5010777;28;20037;-69
2023/08/08 12:07:18;;;;;;;6.70;2.05;;;20.00;99.90;;;;;;5011760;28;20033;-69
2023/08/08 12:09:44;;;;;;;2.92;2.15;;;19.70;99.90;;;;;;4998501;28;20037;-69
2023/08/08 12:12:10;;;;;;;3.17;2.58;;;19.00;99.90;;;;;;5017410;28;20103;-69
2023/08/08 12:14:39;;;;;;;3.88;2.20;;;18.60;99.90;;;;;;5011006;28;20449;-70
2023/08/08 12:17:05;;;;;;;3.63;2.03;;;18.40;99.90;;;;;;4999539;28;20099;-68
2023/08/08 12:19:31;;;;;;;2.13;1.60;;;18.50;99.90;;;;;;5011496;28;20034;-69
2023/08/08 12:21:57;;;;;;;4.57;2.03;;;18.50;99.90;;;;;;5013088;28;20068;-69
2023/08/08 12:24:23;;;;;;;4.53;1.98;;;18.60;99.90;;;;;;5013098;28;20081;-68
2023/08/08 12:26:49;;;;;;;3.42;1.40;;;18.70;99.90;;;;;;5009511;28;20034;-69
2023/08/08 12:29:14;;;;;;;3.08;1.70;;;18.80;99.90;;;;;;5022717;28;20144;-69
2023/08/08 12:31:41;;;;;;;8.75;2.47;;;18.90;99.90;;;;;;5007565;28;20037;-69
2023/08/08 12:34:06;;;;;;;1.83;1.70;;;19.10;99.90;;;;;;4994955;28;20508;-68
2023/08/08 12:36:33;;;;;;;3.92;1.83;;;19.30;99.90;;;;;;5017312;28;20042;-69
2023/08/08 12:38:59;;;;;;;3.30;2.10;;;19.60;99.90;;;;;;5015973;28;20533;-68
2023/08/08 12:41:25;;;;;;;1.80;1.70;;;19.80;99.10;;;;;;5015057;28;20108;-69
2023/08/08 12:43:52;;;;;;;3.35;1.50;;;20.00;99.60;;;;;;5013721;28;20056;-68
2023/08/08 12:46:17;;;;;;;6.20;1.48;;;20.20;98.00;;;;;;4999188;28;20034;-69